createdAt,value
2022-11-19T00:02:42.424Z,11.98
2022-11-19T00:07:34.005Z,11.90
2022-11-19T00:12:44.347Z,11.43
2022-11-19T00:17:35.942Z,11.46
2022-11-19T00:22:27.636Z,12.13
2022-11-19T00:27:19.236Z,11.28
2022-11-19T00:32:10.851Z,11.69
2022-11-19T00:37:02.493Z,11.57
2022-11-19T00:41:54.034Z,11.46
2022-11-19T00:46:45.741Z,11.67
2022-11-19T00:51:37.920Z,11.07
2022-11-19T00:56:29.465Z,11.26
2022-11-19T01:01:23.591Z,12.07
2022-11-19T01:06:19.276Z,11.97
2022-11-19T01:11:17.559Z,11.62
2022-11-19T01:16:27.524Z,11.93
2022-11-19T01:21:21.011Z,12.08
2022-11-19T01:26:13.233Z,11.81
2022-11-19T01:31:10.868Z,12.16
2022-11-19T01:36:05.374Z,11.16
2022-11-19T01:40:58.116Z,12.08
2022-11-19T01:45:49.904Z,12.26
2022-11-19T01:51:04.750Z,11.91
2022-11-19T01:56:03.709Z,10.99
2022-11-19T02:00:55.324Z,11.80
2022-11-19T02:05:47.370Z,11.69
2022-11-19T02:11:04.683Z,11.64
2022-11-19T02:16:14.265Z,11.37
2022-11-19T02:21:11.527Z,12.42
2022-11-19T02:26:21.721Z,12.52
2022-11-19T02:31:39.661Z,12.37
2022-11-19T02:36:56.060Z,12.65
2022-11-19T02:41:47.582Z,12.74
2022-11-19T02:46:39.702Z,12.48
2022-11-19T02:51:31.385Z,12.51
2022-11-19T02:56:50.048Z,12.85
2022-11-19T03:02:04.292Z,11.96
2022-11-19T03:07:02.275Z,12.63
2022-11-19T03:12:07.937Z,12.69
2022-11-19T03:17:15.913Z,13.24
2022-11-19T03:22:19.325Z,12.09
2022-11-19T03:27:26.472Z,11.75
2022-11-19T03:32:22.277Z,11.10
2022-11-19T03:37:17.514Z,10.09
2022-11-19T03:42:12.806Z,10.11
2022-11-19T03:47:13.522Z,10.30
2022-11-19T03:52:10.707Z,9.26
2022-11-19T03:57:05.696Z,9.55
2022-11-19T04:02:01.783Z,9.88
2022-11-19T04:06:54.282Z,8.69
2022-11-19T04:16:39.386Z,5.87
2022-11-19T04:21:31.074Z,5.18
2022-11-19T04:26:22.696Z,5.59
2022-11-19T04:31:17.879Z,5.74
2022-11-19T04:36:09.968Z,5.74
2022-11-19T04:41:01.500Z,5.35
2022-11-19T04:45:53.047Z,5.21
2022-11-19T04:50:44.692Z,4.14
2022-11-19T04:55:36.265Z,4.75
2022-11-19T05:00:27.840Z,4.63
2022-11-19T05:05:19.485Z,3.48
2022-11-19T05:10:11.218Z,4.06
2022-11-19T05:15:03.317Z,3.87
2022-11-19T05:19:54.857Z,4.83
2022-11-19T05:24:46.399Z,4.67
2022-11-19T05:29:37.974Z,4.20
2022-11-19T05:34:29.532Z,4.79
2022-11-19T05:39:22.361Z,4.45
2022-11-19T05:44:14.156Z,4.10
2022-11-19T05:49:05.921Z,4.63
2022-11-19T05:53:57.616Z,3.91
2022-11-19T05:58:49.310Z,2.23
2022-11-19T06:03:41.524Z,4.48
2022-11-19T06:08:33.649Z,4.28
2022-11-19T06:13:25.158Z,4.08
2022-11-19T06:18:16.813Z,3.54
2022-11-19T06:23:08.351Z,3.92
2022-11-19T06:27:59.883Z,2.81
2022-11-19T06:32:51.439Z,4.17
2022-11-19T06:37:43.018Z,3.62
2022-11-19T06:42:37.470Z,3.54
2022-11-19T06:47:33.583Z,3.93
2022-11-19T06:52:25.779Z,2.04
2022-11-19T06:57:17.755Z,2.21
2022-11-19T07:02:11.301Z,3.31
2022-11-19T07:07:03.633Z,2.82
2022-11-19T07:11:55.455Z,3.66
2022-11-19T07:16:46.993Z,2.70
2022-11-19T07:21:38.691Z,2.74
2022-11-19T07:26:32.587Z,2.67
2022-11-19T07:31:24.945Z,3.49
2022-11-19T07:36:18.573Z,3.55
2022-11-19T07:41:29.224Z,2.30
2022-11-19T07:46:21.035Z,3.81
2022-11-19T07:51:13.004Z,3.25
2022-11-19T07:56:04.703Z,3.38
2022-11-19T08:00:56.311Z,3.38
2022-11-19T08:05:47.926Z,3.86
2022-11-19T08:10:39.481Z,4.22
2022-11-19T08:15:33.228Z,3.96
2022-11-19T08:20:25.065Z,3.18
2022-11-19T08:25:16.953Z,3.84
2022-11-19T08:30:09.542Z,3.65
2022-11-19T08:35:01.181Z,4.30
2022-11-19T08:39:52.980Z,3.87
2022-11-19T08:44:44.525Z,2.94
2022-11-19T08:49:36.202Z,4.42
2022-11-19T08:54:27.794Z,2.42
2022-11-19T08:59:23.907Z,4.34
2022-11-19T09:04:15.773Z,3.91
2022-11-19T09:09:07.372Z,3.15
2022-11-19T09:13:58.998Z,3.77
2022-11-19T09:18:50.536Z,4.09
2022-11-19T09:23:42.643Z,3.80
2022-11-19T09:28:35.490Z,4.12
2022-11-19T09:33:28.943Z,3.83
2022-11-19T09:38:20.951Z,4.80
2022-11-19T09:43:41.154Z,4.38
2022-11-19T09:48:41.988Z,4.63
2022-11-19T09:53:40.784Z,5.17
2022-11-19T09:58:45.189Z,4.10
2022-11-19T10:03:40.752Z,3.62
2022-11-19T10:08:44.422Z,4.72
2022-11-19T10:13:45.761Z,3.70
2022-11-19T10:19:00.811Z,0.41
2022-11-19T10:35:07.793Z,4.86
2022-11-19T10:40:06.399Z,4.91
2022-11-19T10:45:03.347Z,5.07
2022-11-19T10:49:55.714Z,5.20
2022-11-19T10:54:50.866Z,5.17
2022-11-19T10:59:43.087Z,2.21
2022-11-19T11:04:34.839Z,3.72
2022-11-19T11:09:43.440Z,4.95
2022-11-19T11:14:53.425Z,4.39
2022-11-19T11:19:45.209Z,3.87
2022-11-19T11:24:38.824Z,4.66
2022-11-19T11:29:30.504Z,3.29
2022-11-19T11:34:32.220Z,4.30
2022-11-19T11:39:30.121Z,4.36
2022-11-19T11:44:24.949Z,2.81
2022-11-19T11:49:30.979Z,5.53
2022-11-19T11:54:22.555Z,3.87
2022-11-19T11:59:21.695Z,3.56
2022-11-19T12:04:13.449Z,4.90
2022-11-19T12:09:10.916Z,5.23
2022-11-19T12:14:11.233Z,3.88
2022-11-19T12:19:33.156Z,5.64
2022-11-19T12:24:55.523Z,5.60
2022-11-19T12:29:53.575Z,5.74
2022-11-19T12:35:12.557Z,5.75
2022-11-19T12:40:18.822Z,3.91
2022-11-19T12:45:25.825Z,4.38
2022-11-19T12:50:33.618Z,5.50
2022-11-19T12:55:51.902Z,3.86
2022-11-19T13:00:53.799Z,4.67
2022-11-19T13:05:58.210Z,3.47
2022-11-19T13:11:04.767Z,5.28
2022-11-19T13:16:11.105Z,5.03
2022-11-19T13:21:41.773Z,5.64
2022-11-19T13:26:35.577Z,4.67
2022-11-19T13:31:38.621Z,3.99
2022-11-19T13:36:37.831Z,5.01
2022-11-19T13:41:34.311Z,4.62
2022-11-19T13:46:32.297Z,4.82
2022-11-19T13:51:32.800Z,4.05
2022-11-19T13:56:47.417Z,4.59
2022-11-19T14:01:43.542Z,4.11
2022-11-19T14:06:38.316Z,4.42
2022-11-19T14:11:54.361Z,4.63
2022-11-19T14:17:13.322Z,3.15
2022-11-19T14:22:49.911Z,4.84
2022-11-19T14:27:42.018Z,3.94
2022-11-19T14:32:35.916Z,5.02
2022-11-19T14:37:36.591Z,4.95
2022-11-19T14:42:28.162Z,4.98
2022-11-19T14:47:22.483Z,4.41
2022-11-19T14:52:26.973Z,3.69
2022-11-19T14:57:28.724Z,4.41
2022-11-19T15:02:25.120Z,4.26
2022-11-19T15:07:37.678Z,4.07
2022-11-19T15:12:44.931Z,4.80
2022-11-19T15:17:36.759Z,3.51
2022-11-19T15:22:37.261Z,4.57
2022-11-19T15:28:00.461Z,4.09
2022-11-19T15:32:56.822Z,3.23
2022-11-19T15:37:50.911Z,4.67
2022-11-19T15:42:50.209Z,4.76
2022-11-19T15:48:07.734Z,3.45
2022-11-19T15:53:14.785Z,5.09
2022-11-19T15:58:14.605Z,3.48
2022-11-19T16:03:10.456Z,4.66
2022-11-19T16:08:08.916Z,4.70
2022-11-19T16:13:38.840Z,4.78
2022-11-19T16:18:30.445Z,4.49
2022-11-19T16:23:24.821Z,3.51
2022-11-19T16:28:24.797Z,4.81
2022-11-19T16:33:21.167Z,4.86
2022-11-19T16:38:43.146Z,4.40
2022-11-19T16:43:35.727Z,4.50
2022-11-19T16:48:53.943Z,3.60
2022-11-19T16:53:46.704Z,1.71
2022-11-19T16:58:38.517Z,4.49
2022-11-19T17:03:36.290Z,4.76
2022-11-19T17:12:56.947Z,4.41
2022-11-19T17:17:50.796Z,4.80
2022-11-19T17:22:42.666Z,4.79
2022-11-19T17:27:37.788Z,4.24
2022-11-19T17:32:34.904Z,4.20
2022-11-19T17:37:26.470Z,4.75
2022-11-19T17:42:36.677Z,4.77
2022-11-19T17:47:28.386Z,4.73
2022-11-19T17:52:24.932Z,4.44
2022-11-19T17:57:16.644Z,4.30
2022-11-19T18:02:16.796Z,4.67
2022-11-19T18:07:08.459Z,4.48
2022-11-19T18:12:00.132Z,4.11
2022-11-19T18:16:51.783Z,3.83
2022-11-19T18:21:45.523Z,3.57
2022-11-19T18:26:37.054Z,4.08
2022-11-19T18:31:28.925Z,4.11
2022-11-19T18:36:21.996Z,3.94
2022-11-19T18:41:15.756Z,4.43
2022-11-19T18:46:07.471Z,4.33
2022-11-19T18:50:59.029Z,4.49
2022-11-19T18:55:50.886Z,4.33
2022-11-19T19:00:43.011Z,4.36
2022-11-19T19:05:34.565Z,2.84
2022-11-19T19:10:27.483Z,4.03
2022-11-19T19:15:19.067Z,3.74
2022-11-19T19:20:11.226Z,4.30
2022-11-19T19:25:05.027Z,3.86
2022-11-19T19:29:56.896Z,3.75
2022-11-19T19:34:48.537Z,3.71
2022-11-19T19:39:40.164Z,3.94
2022-11-19T19:44:31.923Z,3.94
2022-11-19T19:49:23.995Z,3.72
2022-11-19T19:54:16.049Z,3.79
2022-11-19T19:59:07.644Z,3.48
2022-11-19T20:04:01.581Z,3.59
2022-11-19T20:08:53.143Z,3.87
2022-11-19T20:13:45.229Z,3.73
2022-11-19T20:18:38.297Z,3.48
2022-11-19T20:23:31.039Z,3.82
2022-11-19T20:28:22.717Z,3.96
2022-11-19T20:33:14.301Z,3.61
2022-11-19T20:38:05.946Z,3.92
2022-11-19T20:43:16.224Z,4.05
2022-11-19T20:48:07.788Z,4.00
2022-11-19T20:52:59.373Z,3.79
2022-11-19T20:57:50.962Z,3.23
2022-11-19T21:02:43.248Z,3.80
2022-11-19T21:07:35.144Z,3.79
2022-11-19T21:12:26.810Z,3.95
2022-11-19T21:17:20.086Z,3.83
2022-11-19T21:22:11.814Z,3.79
2022-11-19T21:27:03.430Z,3.99
2022-11-19T21:31:55.559Z,3.57
2022-11-19T21:36:48.321Z,3.56
2022-11-19T21:41:40.929Z,2.49
2022-11-19T21:46:33.346Z,3.19
2022-11-19T21:51:25.593Z,3.33
2022-11-19T21:56:17.240Z,3.51
2022-11-19T22:01:12.035Z,3.01
2022-11-19T22:06:06.443Z,3.37
2022-11-19T22:10:58.540Z,3.10
2022-11-19T22:15:50.712Z,2.87
2022-11-19T22:20:43.301Z,2.59
2022-11-19T22:25:35.222Z,2.95
2022-11-19T22:30:27.721Z,3.30
2022-11-19T22:35:19.312Z,3.26
2022-11-19T22:40:12.585Z,3.21
2022-11-19T22:45:04.738Z,2.25
2022-11-19T22:49:56.412Z,3.46
2022-11-19T22:54:48.012Z,3.46
2022-11-19T22:59:40.236Z,3.49
2022-11-19T23:04:31.817Z,3.50
2022-11-19T23:09:23.619Z,3.50
2022-11-19T23:14:17.034Z,3.66
2022-11-19T23:19:11.073Z,3.34
2022-11-19T23:24:03.473Z,3.10
2022-11-19T23:28:55.817Z,3.02
2022-11-19T23:33:48.519Z,3.59
2022-11-19T23:38:41.295Z,3.63
2022-11-19T23:43:33.753Z,3.81
2022-11-19T23:48:25.293Z,3.80
2022-11-19T23:53:17.137Z,3.42
2022-11-19T23:58:08.722Z,3.44
